createdAt,value
2023-03-26T00:01:15.856Z,95592.41
2023-03-26T00:03:47.223Z,95572.41
2023-03-26T00:06:25.479Z,95597.03
2023-03-26T00:09:01.602Z,95534.03
2023-03-26T00:11:29.749Z,95572.81
2023-03-26T00:13:57.876Z,95579.00
2023-03-26T00:16:27.827Z,95523.69
2023-03-26T00:18:54.997Z,95561.13
2023-03-26T00:21:28.407Z,95582.53
2023-03-26T00:23:58.528Z,95575.28
2023-03-26T00:26:27.138Z,95584.25
2023-03-26T00:28:54.643Z,95550.84
2023-03-26T00:31:21.915Z,95523.91
2023-03-26T00:33:55.475Z,95546.97
2023-03-26T00:36:25.592Z,95505.09
2023-03-26T00:38:54.001Z,95563.91
2023-03-26T00:41:24.935Z,95526.38
2023-03-26T00:43:57.149Z,95572.53
2023-03-26T00:46:25.641Z,95490.31
2023-03-26T00:48:52.783Z,95540.97
2023-03-26T00:51:21.242Z,95572.22
2023-03-26T00:53:49.780Z,95532.19
2023-03-26T00:56:17.476Z,95568.81
2023-03-26T00:58:44.857Z,95577.00
2023-03-26T01:01:18.747Z,95581.81
2023-03-26T01:04:00.887Z,95562.38
2023-03-26T01:06:36.201Z,95525.59
2023-03-26T01:09:18.762Z,95571.91
2023-03-26T01:11:47.513Z,95568.25
2023-03-26T01:14:23.554Z,95569.78
2023-03-26T01:16:55.361Z,95559.47
2023-03-26T01:19:38.060Z,95567.44
2023-03-26T01:22:11.066Z,95574.25
2023-03-26T01:24:39.525Z,95571.91
2023-03-26T01:27:21.325Z,95570.06
2023-03-26T01:30:01.373Z,95568.25
2023-03-26T01:32:44.281Z,95573.00
2023-03-26T01:35:30.559Z,95543.91
2023-03-26T01:38:10.982Z,95538.22
2023-03-26T01:40:49.624Z,95568.25
2023-03-26T01:43:21.435Z,95561.13
2023-03-26T01:45:50.093Z,95534.03
2023-03-26T01:48:17.273Z,95511.41
2023-03-26T01:50:44.803Z,95556.34
2023-03-26T01:53:13.844Z,95531.09
2023-03-26T01:55:49.617Z,95552.97
2023-03-26T01:58:35.615Z,95528.63
2023-03-26T02:01:19.579Z,95545.41
2023-03-26T02:04:06.520Z,95554.81
2023-03-26T02:06:38.137Z,95538.16
2023-03-26T02:09:09.096Z,95547.88
2023-03-26T02:11:38.525Z,95545.56
2023-03-26T02:14:07.059Z,95536.03
2023-03-26T02:16:34.293Z,95543.88
2023-03-26T02:19:01.004Z,95538.78
2023-03-26T02:21:28.769Z,95504.34
2023-03-26T02:24:03.606Z,95522.03
2023-03-26T02:26:37.616Z,95524.22
2023-03-26T02:29:12.448Z,95513.59
2023-03-26T02:31:41.537Z,95482.03
2023-03-26T02:34:08.154Z,95486.34
2023-03-26T02:36:37.500Z,95514.22
2023-03-26T02:39:05.302Z,95539.47
2023-03-26T02:41:35.502Z,95494.81
2023-03-26T02:44:06.925Z,95509.56
2023-03-26T02:46:54.012Z,95506.06
2023-03-26T02:49:41.060Z,95521.91
2023-03-26T02:52:07.994Z,95530.34
2023-03-26T02:54:36.093Z,95528.50
2023-03-26T02:57:08.408Z,95503.72
2023-03-26T02:59:54.513Z,95511.72
2023-03-26T03:02:52.719Z,95482.19
2023-03-26T03:05:20.143Z,95489.09
2023-03-26T03:07:58.196Z,95450.63
2023-03-26T03:10:28.173Z,95512.06
2023-03-26T03:13:08.904Z,95494.16
2023-03-26T03:15:36.739Z,95466.03
2023-03-26T03:18:03.704Z,95499.09
2023-03-26T03:20:35.224Z,95499.88
2023-03-26T03:23:02.119Z,95468.97
2023-03-26T03:25:30.154Z,95479.41
2023-03-26T03:27:57.094Z,95482.66
2023-03-26T03:30:24.040Z,95489.88
2023-03-26T03:33:13.240Z,95483.09
2023-03-26T03:35:41.721Z,95476.31
2023-03-26T03:38:08.542Z,95480.16
2023-03-26T03:40:44.678Z,95521.72
2023-03-26T03:43:11.377Z,95505.41
2023-03-26T03:45:47.836Z,95479.25
2023-03-26T03:48:38.173Z,95471.22
2023-03-26T03:51:06.412Z,95465.22
2023-03-26T03:54:03.049Z,95478.00
2023-03-26T03:56:52.236Z,95487.25
2023-03-26T03:59:38.668Z,95481.56
2023-03-26T04:02:14.419Z,95514.03
2023-03-26T04:04:50.227Z,95487.13
2023-03-26T04:07:20.064Z,95509.88
2023-03-26T04:10:05.930Z,95480.03
2023-03-26T04:13:07.953Z,95493.41
2023-03-26T04:15:57.960Z,95476.78
2023-03-26T04:18:26.319Z,95426.78
2023-03-26T04:20:55.622Z,95490.06
2023-03-26T04:23:26.668Z,95463.09
2023-03-26T04:26:04.277Z,95490.97
2023-03-26T04:29:00.028Z,95461.25
2023-03-26T04:31:30.545Z,95478.50
2023-03-26T04:34:15.370Z,95488.22
2023-03-26T04:36:54.503Z,95488.22
2023-03-26T04:39:29.277Z,95475.56
2023-03-26T04:42:15.376Z,95460.22
2023-03-26T04:44:56.280Z,95476.84
2023-03-26T04:47:23.543Z,95475.78
2023-03-26T04:49:50.685Z,95457.16
2023-03-26T04:52:18.183Z,95443.59
2023-03-26T04:54:57.406Z,95471.63
2023-03-26T04:57:33.906Z,95493.13
2023-03-26T05:00:16.661Z,95465.31
2023-03-26T05:02:50.445Z,95429.72
2023-03-26T05:05:18.315Z,95484.69
2023-03-26T05:07:45.223Z,95487.75
2023-03-26T05:10:16.536Z,95497.00
2023-03-26T05:12:49.392Z,95493.91
2023-03-26T05:15:25.410Z,95449.91
2023-03-26T05:18:32.283Z,95445.75
2023-03-26T05:21:00.235Z,95474.22
2023-03-26T05:23:28.098Z,95418.50
2023-03-26T05:26:10.160Z,95472.94
2023-03-26T05:28:37.078Z,95456.06
2023-03-26T05:31:17.991Z,95435.59
2023-03-26T05:33:48.614Z,95438.06
2023-03-26T05:36:17.278Z,95475.31
2023-03-26T05:38:49.557Z,95434.38
2023-03-26T05:41:36.477Z,95431.44
2023-03-26T05:44:03.208Z,95438.53
2023-03-26T05:46:31.089Z,95459.91
2023-03-26T05:48:58.184Z,95437.16
2023-03-26T05:51:25.341Z,95442.97
2023-03-26T05:54:01.690Z,95443.75
2023-03-26T05:57:03.704Z,95426.22
2023-03-26T05:59:50.554Z,95437.16
2023-03-26T06:02:36.110Z,95448.53
2023-03-26T06:05:20.741Z,95417.75
2023-03-26T06:08:07.800Z,95392.50
2023-03-26T06:10:39.363Z,95420.78
2023-03-26T06:13:06.344Z,95436.63
2023-03-26T06:15:35.885Z,95354.63
2023-03-26T06:18:14.669Z,95425.16
2023-03-26T06:21:08.061Z,95434.06
2023-03-26T06:23:44.162Z,95395.63
2023-03-26T06:26:26.985Z,95407.00
2023-03-26T06:29:20.160Z,95426.97
2023-03-26T06:32:18.514Z,95392.25
2023-03-26T06:34:51.561Z,95383.00
2023-03-26T06:37:20.934Z,95373.72
2023-03-26T06:39:56.882Z,95370.31
2023-03-26T06:43:08.737Z,95356.88
2023-03-26T06:45:53.611Z,95363.19
2023-03-26T06:48:29.323Z,95367.84
2023-03-26T06:51:13.517Z,95356.28
2023-03-26T06:53:58.767Z,95367.94
2023-03-26T06:56:43.336Z,95368.38
2023-03-26T06:59:28.316Z,95285.16
2023-03-26T07:02:13.588Z,95344.00
2023-03-26T07:04:59.153Z,95385.66
2023-03-26T07:07:46.872Z,95360.00
2023-03-26T07:10:32.947Z,95370.50
2023-03-26T07:13:18.374Z,95380.66
2023-03-26T07:16:23.700Z,95371.72
2023-03-26T07:19:13.356Z,95391.19
2023-03-26T07:21:41.810Z,95389.00
2023-03-26T07:24:44.397Z,95371.53
2023-03-26T07:27:36.978Z,95374.78
2023-03-26T07:30:54.901Z,95367.72
2023-03-26T07:33:56.900Z,95323.44
2023-03-26T07:36:53.898Z,95354.59
2023-03-26T07:40:08.133Z,95342.41
2023-03-26T07:43:20.098Z,95331.28
2023-03-26T07:46:14.226Z,95339.19
2023-03-26T07:49:07.592Z,95317.84
2023-03-26T07:51:57.600Z,95309.97
2023-03-26T07:54:44.526Z,95308.63
2023-03-26T07:57:45.493Z,95336.81
2023-03-26T08:00:30.016Z,95300.84
2023-03-26T08:03:09.913Z,95330.66
2023-03-26T08:06:24.151Z,95321.69
2023-03-26T08:09:28.339Z,95283.69
2023-03-26T08:12:57.993Z,95317.22
2023-03-26T08:15:41.644Z,95286.88
2023-03-26T08:18:27.503Z,95318.31
2023-03-26T08:21:00.858Z,95300.69
2023-03-26T08:24:11.033Z,95317.44
2023-03-26T08:26:57.385Z,95296.63
2023-03-26T08:29:36.367Z,95293.09
2023-03-26T08:32:05.996Z,95287.41
2023-03-26T08:34:32.699Z,95269.09
2023-03-26T08:36:59.374Z,95251.06
2023-03-26T08:39:26.017Z,95274.06
2023-03-26T08:42:11.536Z,95292.44
2023-03-26T08:44:47.719Z,95296.94
2023-03-26T08:47:27.469Z,95287.53
2023-03-26T08:50:10.567Z,95288.63
2023-03-26T08:53:06.115Z,95277.47
2023-03-26T08:55:58.128Z,95274.72
2023-03-26T08:58:58.934Z,95272.94
2023-03-26T09:01:50.100Z,95273.00
2023-03-26T09:04:47.882Z,95272.22
2023-03-26T09:07:29.841Z,95256.44
2023-03-26T09:09:56.483Z,95256.31
2023-03-26T09:12:44.649Z,95253.25
2023-03-26T09:15:47.034Z,95250.63
2023-03-26T09:18:22.679Z,95240.53
2023-03-26T09:21:34.424Z,95235.16
2023-03-26T09:24:10.894Z,95233.81
2023-03-26T09:26:46.396Z,95228.19
2023-03-26T09:29:32.912Z,95219.13
2023-03-26T09:32:29.211Z,95207.94
2023-03-26T09:35:13.117Z,95203.22
2023-03-26T09:38:11.764Z,95201.69
2023-03-26T09:41:18.422Z,95202.41
2023-03-26T09:44:14.637Z,95171.13
2023-03-26T09:47:20.105Z,95193.88
2023-03-26T09:50:01.830Z,95193.56
2023-03-26T09:52:50.412Z,95189.88
2023-03-26T09:55:32.437Z,95199.09
2023-03-26T09:58:04.948Z,95204.47
2023-03-26T10:00:46.261Z,95196.38
2023-03-26T10:03:43.841Z,95182.81
2023-03-26T10:06:14.253Z,95191.31
2023-03-26T10:09:09.672Z,95190.44
2023-03-26T10:12:24.608Z,95189.59
2023-03-26T10:15:09.874Z,95194.41
2023-03-26T10:17:49.020Z,95188.38
2023-03-26T10:20:46.287Z,95164.50
2023-03-26T10:23:34.106Z,95186.69
2023-03-26T10:26:29.160Z,95187.25
2023-03-26T10:29:17.825Z,95181.31
2023-03-26T10:32:12.468Z,95186.47
2023-03-26T10:34:48.230Z,95185.91
2023-03-26T10:37:45.870Z,95187.19
2023-03-26T10:40:55.148Z,95182.16
2023-03-26T10:43:33.706Z,95188.09
2023-03-26T10:46:13.827Z,95187.19
2023-03-26T10:49:01.076Z,95180.25
2023-03-26T10:51:51.400Z,95182.97
2023-03-26T10:54:57.069Z,95187.72
2023-03-26T10:57:37.060Z,95181.50
2023-03-26T11:00:16.783Z,95176.28
2023-03-26T11:03:22.597Z,95182.47
2023-03-26T11:05:54.120Z,95170.69
2023-03-26T11:08:31.902Z,95155.59
2023-03-26T11:11:16.984Z,95167.97
2023-03-26T11:13:48.301Z,95153.09
2023-03-26T11:16:39.366Z,95166.91
2023-03-26T11:19:16.764Z,95137.22
2023-03-26T11:21:52.802Z,95166.56
2023-03-26T11:24:37.501Z,95119.41
2023-03-26T11:27:15.344Z,95160.88
2023-03-26T11:30:02.024Z,95148.41
2023-03-26T11:32:42.188Z,95128.44
2023-03-26T11:35:41.042Z,95157.13
2023-03-26T11:38:15.859Z,95154.75
2023-03-26T11:40:48.958Z,95118.59
2023-03-26T11:43:30.051Z,95099.38
2023-03-26T11:45:56.922Z,95140.66
2023-03-26T11:48:30.571Z,95129.06
2023-03-26T11:51:18.504Z,95123.09
2023-03-26T11:53:48.788Z,95114.78
2023-03-26T11:56:31.068Z,95128.81
2023-03-26T11:59:05.809Z,95118.16
2023-03-26T12:01:50.417Z,95116.16
2023-03-26T12:04:29.407Z,95066.28
2023-03-26T12:07:07.708Z,95103.28
2023-03-26T12:09:34.568Z,95080.16
2023-03-26T12:12:04.286Z,95055.47
2023-03-26T12:14:34.727Z,95088.03
2023-03-26T12:17:01.660Z,95086.66
2023-03-26T12:19:36.216Z,95072.97
2023-03-26T12:22:02.978Z,95046.41
2023-03-26T12:24:32.945Z,95067.28
2023-03-26T12:27:02.421Z,95061.34
2023-03-26T12:29:34.663Z,95053.47
2023-03-26T12:32:14.224Z,95041.13
2023-03-26T12:34:41.605Z,95038.50
2023-03-26T12:37:38.714Z,95049.81
2023-03-26T12:40:30.664Z,95037.44
2023-03-26T12:44:46.166Z,95036.25
2023-03-26T12:47:54.025Z,95021.69
2023-03-26T12:48:38.218Z,95008.34
2023-03-26T12:51:11.124Z,95017.66
2023-03-26T12:53:56.429Z,95019.28
2023-03-26T12:56:36.993Z,95015.22
2023-03-26T12:59:34.362Z,94989.31
2023-03-26T13:02:21.724Z,94980.81
2023-03-26T13:05:06.124Z,94992.28
2023-03-26T13:08:01.460Z,94986.84
2023-03-26T13:10:41.172Z,95000.72
2023-03-26T13:13:38.351Z,94986.63
2023-03-26T13:16:52.056Z,94991.63
2023-03-26T13:19:40.916Z,94994.38
2023-03-26T13:22:31.068Z,94996.56
2023-03-26T13:25:23.033Z,94989.34
2023-03-26T13:28:04.690Z,94984.03
2023-03-26T13:30:39.722Z,94984.47
2023-03-26T13:33:31.776Z,94955.25
2023-03-26T13:36:29.921Z,94929.34
2023-03-26T13:39:10.801Z,94956.28
2023-03-26T13:41:50.027Z,94974.19
2023-03-26T13:44:19.650Z,94966.91
2023-03-26T13:46:51.970Z,94936.84
2023-03-26T13:49:37.230Z,94959.94
2023-03-26T13:52:37.813Z,94950.94
2023-03-26T13:55:23.319Z,94950.66
2023-03-26T13:58:24.132Z,94951.50
2023-03-26T14:01:21.786Z,94945.31
2023-03-26T14:04:10.542Z,94936.75
2023-03-26T14:06:57.484Z,94936.50
2023-03-26T14:09:54.743Z,94904.75
2023-03-26T14:12:22.065Z,94928.41
2023-03-26T14:15:09.170Z,94942.34
2023-03-26T14:17:41.596Z,94944.53
2023-03-26T14:20:17.575Z,94956.78
2023-03-26T14:23:15.300Z,94955.41
2023-03-26T14:26:01.174Z,94932.91
2023-03-26T14:29:06.156Z,94932.91
2023-03-26T14:31:43.152Z,94916.22
2023-03-26T14:34:16.104Z,94933.03
2023-03-26T14:37:27.763Z,94926.84
2023-03-26T14:40:21.413Z,94927.03
2023-03-26T14:43:24.850Z,94904.81
2023-03-26T14:46:26.675Z,94916.50
2023-03-26T14:49:11.744Z,94908.44
2023-03-26T14:52:20.701Z,94918.50
2023-03-26T14:54:53.139Z,94887.91
2023-03-26T14:57:22.788Z,94905.38
2023-03-26T15:00:27.089Z,94902.19
2023-03-26T15:03:12.624Z,94907.31
2023-03-26T15:05:42.479Z,94909.00
2023-03-26T15:08:33.614Z,94895.47
2023-03-26T15:11:20.995Z,94885.50
2023-03-26T15:13:53.447Z,94889.03
2023-03-26T15:16:40.052Z,94893.94
2023-03-26T15:19:34.226Z,94889.59
2023-03-26T15:22:12.688Z,94893.75
2023-03-26T15:24:48.525Z,94900.66
2023-03-26T15:27:50.562Z,94899.78
2023-03-26T15:30:51.253Z,94892.75
2023-03-26T15:33:49.648Z,94878.75
2023-03-26T15:36:38.250Z,94904.13
2023-03-26T15:39:26.194Z,94893.41
2023-03-26T15:42:08.094Z,94891.06
2023-03-26T15:44:57.611Z,94902.75
2023-03-26T15:47:48.821Z,94891.19
2023-03-26T15:50:22.514Z,94860.16
2023-03-26T15:53:18.578Z,94866.47
2023-03-26T15:56:16.041Z,94883.63
2023-03-26T15:58:44.146Z,94881.78
2023-03-26T16:01:45.051Z,94878.88
2023-03-26T16:04:29.654Z,94873.25
2023-03-26T16:07:03.511Z,94887.53
2023-03-26T16:09:56.109Z,94892.28
2023-03-26T16:12:32.715Z,94889.66
2023-03-26T16:15:05.966Z,94897.22
2023-03-26T16:18:16.916Z,94902.47
2023-03-26T16:21:05.081Z,94898.44
2023-03-26T16:23:47.925Z,94895.19
2023-03-26T16:26:37.417Z,94896.03
2023-03-26T16:29:25.767Z,94871.38
2023-03-26T16:32:12.602Z,94903.00
2023-03-26T16:34:45.691Z,94891.78
2023-03-26T16:37:52.161Z,94894.19
2023-03-26T16:40:22.646Z,94888.34
2023-03-26T16:43:17.409Z,94886.53
2023-03-26T16:46:08.371Z,94891.94
2023-03-26T16:49:00.228Z,94892.03
2023-03-26T16:51:53.652Z,94873.00
2023-03-26T16:54:24.596Z,94883.81
2023-03-26T16:57:22.678Z,94891.03
2023-03-26T17:00:08.653Z,94876.53
2023-03-26T17:02:48.011Z,94872.56
2023-03-26T17:05:34.233Z,94885.22
2023-03-26T17:08:36.908Z,94888.47
2023-03-26T17:11:22.196Z,94904.31
2023-03-26T17:14:11.045Z,94897.78
2023-03-26T17:16:49.250Z,94870.47
2023-03-26T17:19:34.207Z,94897.69
2023-03-26T17:29:54.513Z,94903.09
2023-03-26T17:32:56.167Z,94893.22
2023-03-26T17:35:44.414Z,94896.03
2023-03-26T17:38:17.785Z,94889.31
2023-03-26T17:40:48.666Z,94877.72
2023-03-26T17:43:47.816Z,94899.47
2023-03-26T17:46:22.832Z,94893.13
2023-03-26T17:48:59.607Z,94905.13
2023-03-26T17:51:39.162Z,94898.34
2023-03-26T17:54:46.255Z,94894.94
2023-03-26T17:57:30.688Z,94887.66
2023-03-26T17:59:59.762Z,94863.13
2023-03-26T18:02:43.367Z,94882.66
2023-03-26T18:05:13.156Z,94878.38
2023-03-26T18:08:13.003Z,94888.00
2023-03-26T18:11:06.033Z,94887.88
2023-03-26T18:14:00.037Z,94873.47
2023-03-26T18:16:36.141Z,94879.66
2023-03-26T18:19:17.635Z,94881.75
2023-03-26T18:21:50.211Z,94879.56
2023-03-26T18:24:32.328Z,94871.69
2023-03-26T18:27:06.990Z,94878.19
2023-03-26T18:29:35.513Z,94878.81
2023-03-26T18:32:14.125Z,94879.28
2023-03-26T18:34:52.562Z,94877.28
2023-03-26T18:37:23.550Z,94879.03
2023-03-26T18:40:02.189Z,94875.22
2023-03-26T18:42:31.607Z,94858.84
2023-03-26T18:45:34.224Z,94844.84
2023-03-26T18:48:04.867Z,94856.44
2023-03-26T18:50:38.823Z,94805.34
2023-03-26T18:53:07.336Z,94844.72
2023-03-26T18:55:41.724Z,94846.19
2023-03-26T18:58:21.735Z,94838.75
2023-03-26T19:00:49.976Z,94810.47
2023-03-26T19:03:22.263Z,94834.94
2023-03-26T19:05:51.516Z,94743.69
2023-03-26T19:08:20.083Z,94842.69
2023-03-26T19:10:51.806Z,94816.13
2023-03-26T19:13:21.604Z,94807.81
2023-03-26T19:15:59.126Z,94837.00
2023-03-26T19:18:36.317Z,94790.28
2023-03-26T19:21:07.520Z,94785.00
2023-03-26T19:23:41.215Z,94847.84
2023-03-26T19:26:11.278Z,94855.94
2023-03-26T19:28:49.081Z,94853.97
2023-03-26T19:31:16.028Z,94856.28
2023-03-26T19:33:44.132Z,94823.44
2023-03-26T19:36:14.326Z,94861.66
2023-03-26T19:38:52.687Z,94827.47
2023-03-26T19:41:36.908Z,94849.28
2023-03-26T19:44:16.310Z,94821.53
2023-03-26T19:46:52.855Z,94857.44
2023-03-26T19:49:47.741Z,94856.34
2023-03-26T19:52:20.038Z,94817.19
2023-03-26T19:54:59.408Z,94854.81
2023-03-26T19:57:32.155Z,94851.06
2023-03-26T19:59:59.841Z,94772.50
2023-03-26T20:02:27.699Z,94767.59
2023-03-26T20:04:54.483Z,94811.88
2023-03-26T20:07:35.620Z,94780.00
2023-03-26T20:10:05.537Z,94798.16
2023-03-26T20:12:32.888Z,94738.84
2023-03-26T20:15:00.790Z,94787.69
2023-03-26T20:17:30.874Z,94814.94
2023-03-26T20:19:57.731Z,94807.88
2023-03-26T20:22:24.548Z,94793.31
2023-03-26T20:24:51.644Z,94795.34
2023-03-26T20:27:19.233Z,94675.03
2023-03-26T20:29:46.574Z,94800.22
2023-03-26T20:32:23.678Z,94855.88
2023-03-26T20:34:51.744Z,94818.84
2023-03-26T20:37:18.503Z,94839.44
2023-03-26T20:39:45.773Z,94831.22
2023-03-26T20:42:15.430Z,94826.75
2023-03-26T20:44:42.831Z,94844.94
2023-03-26T20:47:12.759Z,94819.28
2023-03-26T20:49:40.199Z,94823.13
2023-03-26T20:52:06.945Z,94774.34
2023-03-26T20:54:33.690Z,94816.03
2023-03-26T20:57:00.484Z,94737.38
2023-03-26T20:59:27.958Z,94814.53
2023-03-26T21:01:56.721Z,94853.94
2023-03-26T21:04:24.723Z,94766.22
2023-03-26T21:06:53.365Z,94870.66
2023-03-26T21:09:24.100Z,94832.53
2023-03-26T21:11:54.794Z,94858.94
2023-03-26T21:14:46.389Z,94876.00
2023-03-26T21:17:16.286Z,94843.88
2023-03-26T21:19:44.114Z,94869.88
2023-03-26T21:22:38.973Z,94853.38
2023-03-26T21:25:18.596Z,94876.22
2023-03-26T21:27:57.472Z,94881.22
2023-03-26T21:30:24.497Z,94852.72
2023-03-26T21:32:52.012Z,94881.75
2023-03-26T21:35:19.293Z,94843.69
2023-03-26T21:37:48.732Z,94887.00
2023-03-26T21:40:18.293Z,94870.84
2023-03-26T21:42:54.839Z,94842.34
2023-03-26T21:45:22.229Z,94852.50
2023-03-26T21:47:49.530Z,94827.28
2023-03-26T21:50:38.539Z,94825.44
2023-03-26T21:53:05.599Z,94875.75
2023-03-26T21:55:43.373Z,94820.28
2023-03-26T21:58:36.070Z,94884.59
2023-03-26T22:01:08.969Z,94886.34
2023-03-26T22:04:02.137Z,94875.88
2023-03-26T22:06:47.305Z,94889.41
2023-03-26T22:09:16.664Z,94890.16
2023-03-26T22:11:45.605Z,94880.88
2023-03-26T22:14:13.364Z,94865.59
2023-03-26T22:16:41.594Z,94852.28
2023-03-26T22:19:08.847Z,94881.63
2023-03-26T22:21:35.946Z,94863.50
2023-03-26T22:24:04.192Z,94777.78
2023-03-26T22:26:31.440Z,94893.09
2023-03-26T22:28:58.572Z,94884.81
2023-03-26T22:31:26.498Z,94832.16
2023-03-26T22:33:54.756Z,94863.09
2023-03-26T22:36:41.773Z,94861.84
2023-03-26T22:39:08.425Z,94872.22
2023-03-26T22:41:35.061Z,94888.59
2023-03-26T22:44:16.756Z,94861.97
2023-03-26T22:46:49.092Z,94851.13
2023-03-26T22:49:16.539Z,94879.31
2023-03-26T22:51:43.739Z,94864.66
2023-03-26T22:54:10.534Z,94864.03
2023-03-26T22:56:37.739Z,94870.59
2023-03-26T22:59:04.617Z,94876.16
2023-03-26T23:01:31.365Z,94866.09
2023-03-26T23:03:58.359Z,94861.63
2023-03-26T23:06:25.235Z,94876.03
2023-03-26T23:08:52.015Z,94846.19
2023-03-26T23:11:20.532Z,94866.75
2023-03-26T23:13:48.024Z,94909.63
2023-03-26T23:16:16.272Z,94886.94
2023-03-26T23:18:44.086Z,94908.44
2023-03-26T23:21:21.569Z,94911.78
2023-03-26T23:23:50.441Z,94915.09
2023-03-26T23:26:17.138Z,94872.81
2023-03-26T23:28:44.107Z,94879.78
2023-03-26T23:31:14.547Z,94914.09
2023-03-26T23:33:46.184Z,94914.44
2023-03-26T23:36:17.689Z,94890.19
2023-03-26T23:38:48.991Z,94899.22
2023-03-26T23:41:21.707Z,94890.94
2023-03-26T23:43:53.629Z,94925.56
2023-03-26T23:46:30.955Z,94912.53
2023-03-26T23:49:03.414Z,94836.47
2023-03-26T23:51:31.318Z,94922.38
2023-03-26T23:53:58.471Z,94919.72
2023-03-26T23:56:27.667Z,94920.53
2023-03-26T23:58:55.261Z,94869.38
